createdAt,value
2023-04-05T06:34:46.570Z,3.96
2023-04-05T06:37:15.809Z,3.96
2023-04-05T06:39:44.461Z,3.53
2023-04-05T06:42:13.159Z,3.66
2023-04-05T06:44:43.544Z,3.52
2023-04-05T06:47:12.434Z,3.70
2023-04-05T06:49:41.147Z,4.07
2023-04-05T06:52:11.598Z,4.12
2023-04-05T06:54:40.535Z,3.89
2023-04-05T06:57:09.143Z,3.99
2023-04-05T06:59:41.709Z,4.06
2023-04-05T07:02:10.595Z,4.35
2023-04-05T07:04:41.346Z,4.28
2023-04-05T07:07:11.746Z,4.69
2023-04-05T07:09:40.967Z,4.57
2023-04-05T07:12:10.298Z,4.79
2023-04-05T07:14:39.175Z,4.64
2023-04-05T07:17:08.365Z,4.70
2023-04-05T07:19:37.025Z,4.52
2023-04-05T07:22:05.644Z,4.76
2023-04-05T07:24:36.146Z,4.66
2023-04-05T07:27:04.990Z,5.16
2023-04-05T07:29:34.956Z,5.41
2023-04-05T07:32:04.279Z,5.59
2023-04-05T07:34:32.973Z,5.82
2023-04-05T07:37:02.850Z,5.61
2023-04-05T07:39:31.850Z,5.37
2023-04-05T07:42:01.945Z,6.13
2023-04-05T07:44:31.006Z,5.97
2023-04-05T07:46:59.738Z,5.88
2023-04-05T07:49:30.039Z,6.24
2023-04-05T07:51:59.110Z,5.67
2023-04-05T07:54:28.056Z,6.13
2023-04-05T07:56:58.167Z,6.12
2023-04-05T07:59:28.676Z,5.66
2023-04-05T08:02:04.829Z,5.86
2023-04-05T08:04:41.573Z,5.61
2023-04-05T08:07:10.258Z,5.25
2023-04-05T08:09:38.868Z,5.99
2023-04-05T08:12:08.202Z,5.71
2023-04-05T08:14:38.229Z,5.81
2023-04-05T08:17:07.167Z,5.61
2023-04-05T08:19:35.875Z,5.44
2023-04-05T08:22:04.584Z,5.81
2023-04-05T08:24:33.601Z,5.82
2023-04-05T08:27:02.219Z,5.72
2023-04-05T08:29:31.035Z,5.90
2023-04-05T08:32:01.368Z,5.94
2023-04-05T08:34:32.531Z,5.74
2023-04-05T08:37:01.355Z,5.71
2023-04-05T08:39:29.931Z,5.70
2023-04-05T08:42:03.556Z,5.84
2023-04-05T08:44:33.021Z,5.72
2023-04-05T08:47:03.065Z,5.74
2023-04-05T08:49:32.025Z,6.00
2023-04-05T08:52:02.038Z,6.32
2023-04-05T08:54:30.739Z,6.54
2023-04-05T08:57:01.378Z,6.86
2023-04-05T08:59:32.371Z,7.25
2023-04-05T09:02:02.253Z,7.35
2023-04-05T09:04:33.821Z,7.55
2023-04-05T09:07:03.922Z,6.91
2023-04-05T09:09:34.942Z,7.14
2023-04-05T09:12:30.856Z,7.15
2023-04-05T09:15:02.094Z,7.09
2023-04-05T09:17:32.459Z,7.13
2023-04-05T09:20:02.602Z,7.19
2023-04-05T09:22:37.595Z,7.32
2023-04-05T09:25:06.812Z,7.31
2023-04-05T09:27:35.974Z,7.17
2023-04-05T09:30:22.615Z,7.15
2023-04-05T09:32:55.032Z,7.11
2023-04-05T09:35:26.608Z,7.29
2023-04-05T09:37:57.041Z,7.33
2023-04-05T09:40:42.255Z,7.34
2023-04-05T09:43:11.447Z,7.00
2023-04-05T09:45:42.653Z,6.96
2023-04-05T09:48:12.633Z,7.03
2023-04-05T09:50:42.916Z,7.18
2023-04-05T09:53:16.213Z,7.56
2023-04-05T09:55:45.616Z,7.44
2023-04-05T09:58:14.916Z,7.45
2023-04-05T10:00:57.923Z,7.60
2023-04-05T10:03:32.305Z,7.83
2023-04-05T10:06:02.397Z,7.81
2023-04-05T10:08:31.402Z,8.08
2023-04-05T10:11:00.863Z,8.22
2023-04-05T10:13:29.775Z,8.21
2023-04-05T10:16:00.590Z,7.51
2023-04-05T10:18:31.451Z,7.37
2023-04-05T10:21:02.432Z,7.56
2023-04-05T10:23:34.312Z,7.95
2023-04-05T10:26:18.998Z,7.48
2023-04-05T10:28:51.858Z,7.65
2023-04-05T10:31:37.064Z,7.85
2023-04-05T10:34:08.205Z,8.09
2023-04-05T10:36:47.152Z,7.57
2023-04-05T10:39:20.440Z,7.87
2023-04-05T10:41:49.999Z,8.02
2023-04-05T10:44:26.227Z,7.96
2023-04-05T10:46:58.239Z,8.02
2023-04-05T10:49:34.322Z,8.09
2023-04-05T10:52:04.926Z,8.63
2023-04-05T10:54:36.748Z,8.92
2023-04-05T10:57:09.658Z,8.79
2023-04-05T10:59:43.153Z,8.66
2023-04-05T11:02:12.069Z,8.28
2023-04-05T11:04:43.476Z,8.23
2023-04-05T11:07:15.157Z,8.40
2023-04-05T11:09:58.122Z,8.87
2023-04-05T11:13:00.246Z,8.68
2023-04-05T11:15:33.189Z,8.56
2023-04-05T11:18:10.214Z,8.69
2023-04-05T11:20:44.209Z,8.69
2023-04-05T11:23:16.197Z,8.68
2023-04-05T11:25:52.098Z,9.07
2023-04-05T11:28:29.363Z,8.63
2023-04-05T11:30:59.469Z,8.76
2023-04-05T11:33:38.719Z,8.86
2023-04-05T11:36:08.759Z,8.42
2023-04-05T11:38:38.914Z,8.27
2023-04-05T11:41:08.945Z,8.75
2023-04-05T11:43:39.415Z,9.01
2023-04-05T11:46:08.419Z,8.79
2023-04-05T11:48:37.267Z,8.88
2023-04-05T11:51:09.842Z,8.71
2023-04-05T11:53:40.392Z,8.67
2023-04-05T11:56:12.849Z,8.79
2023-04-05T11:58:43.768Z,9.03
2023-04-05T12:01:12.477Z,8.81
2023-04-05T12:03:41.607Z,9.21
2023-04-05T12:06:10.378Z,9.58
2023-04-05T12:08:42.040Z,9.77
2023-04-05T12:11:12.322Z,10.02
2023-04-05T12:13:41.031Z,10.17
2023-04-05T12:16:10.652Z,10.58
2023-04-05T12:18:39.810Z,10.22
2023-04-05T12:21:10.955Z,9.79
2023-04-05T12:23:41.257Z,9.54
2023-04-05T12:26:09.989Z,9.96
2023-04-05T12:28:52.154Z,10.38
2023-04-05T12:31:41.550Z,10.11
2023-04-05T12:34:10.955Z,10.20
2023-04-05T12:36:40.843Z,10.29
2023-04-05T12:39:11.592Z,10.21
2023-04-05T12:41:40.709Z,10.32
2023-04-05T12:44:13.172Z,10.35
2023-04-05T12:46:42.661Z,9.93
2023-04-05T12:49:16.093Z,10.32
2023-04-05T12:51:46.224Z,10.50
2023-04-05T12:54:16.991Z,10.93
2023-04-05T12:56:45.985Z,11.00
2023-04-05T12:59:14.767Z,10.83
2023-04-05T13:01:43.469Z,11.29
2023-04-05T13:04:16.626Z,11.55
2023-04-05T13:06:47.329Z,11.53
2023-04-05T13:09:18.156Z,11.68
2023-04-05T13:11:46.963Z,11.50
2023-04-05T13:14:15.993Z,11.75
2023-04-05T13:16:44.724Z,11.68
2023-04-05T13:19:13.350Z,11.80
2023-04-05T13:21:42.692Z,11.85
2023-04-05T13:24:12.924Z,12.46
2023-04-05T13:26:43.461Z,12.33
2023-04-05T13:29:12.102Z,12.55
2023-04-05T13:31:41.716Z,12.69
2023-04-05T13:34:10.731Z,12.64
2023-04-05T13:36:39.443Z,12.62
2023-04-05T13:39:08.220Z,12.04
2023-04-05T13:41:37.358Z,12.79
2023-04-05T13:44:07.484Z,12.74
2023-04-05T13:46:36.545Z,12.67
2023-04-05T13:49:05.520Z,12.81
2023-04-05T13:51:35.704Z,12.85
2023-04-05T13:54:04.389Z,11.92
2023-04-05T13:56:33.346Z,11.76
2023-04-05T13:59:02.130Z,11.94
2023-04-05T14:01:32.356Z,12.18
2023-04-05T14:04:01.423Z,12.18
2023-04-05T14:06:34.469Z,11.94
2023-04-05T14:09:03.409Z,12.14
2023-04-05T14:11:32.998Z,12.29
2023-04-05T14:14:01.986Z,12.54
2023-04-05T14:16:32.377Z,12.20
2023-04-05T14:19:01.042Z,12.07
2023-04-05T14:21:29.705Z,12.09
2023-04-05T14:23:58.651Z,11.66
2023-04-05T14:26:28.352Z,11.90
2023-04-05T14:28:57.032Z,12.08
2023-04-05T14:31:26.410Z,11.92
2023-04-05T14:33:56.741Z,12.46
2023-04-05T14:36:26.413Z,12.82
2023-04-05T14:38:55.471Z,12.96
2023-04-05T14:41:24.821Z,12.52
2023-04-05T14:43:53.488Z,12.57
2023-04-05T14:46:22.925Z,12.81
2023-04-05T14:48:51.780Z,13.11
2023-04-05T14:51:24.199Z,12.76
2023-04-05T14:53:53.154Z,12.51
2023-04-05T14:56:22.039Z,12.12
2023-04-05T14:58:50.691Z,12.46
2023-04-05T15:01:19.682Z,11.97
2023-04-05T15:03:51.577Z,11.78
2023-04-05T15:06:22.866Z,11.56
2023-04-05T15:08:51.579Z,11.28
2023-04-05T15:11:21.719Z,11.14
2023-04-05T15:13:50.662Z,11.17
2023-04-05T15:16:19.434Z,11.09
2023-04-05T15:18:51.069Z,11.14
2023-04-05T15:21:20.233Z,11.03
2023-04-05T15:23:50.415Z,10.96
2023-04-05T15:26:19.137Z,10.73
2023-04-05T15:28:48.145Z,10.54
2023-04-05T15:31:17.290Z,10.45
2023-04-05T15:33:46.273Z,10.71
2023-04-05T15:36:15.416Z,10.09
2023-04-05T15:38:47.914Z,9.95
2023-04-05T15:41:18.306Z,10.25
2023-04-05T15:43:47.478Z,10.19
2023-04-05T15:46:16.359Z,10.15
2023-04-05T15:48:45.331Z,10.07
2023-04-05T15:51:13.985Z,10.13
2023-04-05T15:53:42.649Z,10.32
2023-04-05T15:56:11.687Z,10.09
2023-04-05T15:58:41.682Z,9.83
2023-04-05T16:01:10.427Z,9.80
2023-04-05T16:03:39.845Z,9.94
2023-04-05T16:06:08.873Z,10.12
2023-04-05T16:08:37.546Z,10.38
2023-04-05T16:11:08.541Z,10.18
2023-04-05T16:13:37.321Z,10.65
2023-04-05T16:16:08.017Z,10.67
2023-04-05T16:18:36.655Z,10.48
2023-04-05T16:21:05.968Z,10.32
2023-04-05T16:23:35.591Z,10.24
2023-04-05T16:26:05.048Z,10.41
2023-04-05T16:28:33.652Z,10.31
2023-04-05T16:31:03.129Z,10.06
2023-04-05T16:33:33.163Z,10.14
2023-04-05T16:36:03.964Z,10.14
2023-04-05T16:38:32.623Z,10.11
2023-04-05T16:41:01.323Z,10.12
2023-04-05T16:43:31.230Z,10.15
2023-04-05T16:46:00.003Z,10.01
2023-04-05T16:48:30.641Z,10.16
2023-04-05T16:51:01.144Z,10.19
2023-04-05T16:53:29.728Z,10.20
2023-04-05T16:55:58.333Z,10.06
2023-04-05T16:58:27.314Z,9.61
2023-04-05T17:00:58.898Z,9.70
2023-04-05T17:03:28.010Z,9.54
2023-04-05T17:05:56.805Z,9.79
2023-04-05T17:08:27.045Z,10.18
2023-04-05T17:10:56.033Z,10.05
2023-04-05T17:13:24.751Z,9.99
2023-04-05T17:15:53.391Z,9.81
2023-04-05T17:18:22.399Z,10.00
2023-04-05T17:20:51.101Z,9.95
2023-04-05T17:23:19.834Z,9.75
2023-04-05T17:25:50.081Z,9.65
2023-04-05T17:28:18.768Z,9.73
2023-04-05T17:30:47.560Z,9.58
2023-04-05T17:33:16.669Z,9.54
2023-04-05T17:35:45.395Z,9.46
2023-04-05T17:38:14.105Z,9.43
2023-04-05T17:40:42.963Z,9.28
2023-04-05T17:43:13.698Z,9.17
2023-04-05T17:45:42.572Z,9.04
2023-04-05T17:48:11.609Z,8.80
2023-04-05T17:50:41.093Z,8.76
2023-04-05T17:53:12.003Z,8.63
2023-04-05T17:55:41.414Z,8.59
2023-04-05T17:58:10.041Z,8.43
2023-04-05T18:00:53.134Z,8.22
2023-04-05T18:03:33.080Z,8.09
2023-04-05T18:06:02.141Z,8.10
2023-04-05T18:08:31.455Z,8.03
2023-04-05T18:11:00.819Z,7.74
2023-04-05T18:13:29.669Z,7.83
2023-04-05T18:16:00.570Z,7.82
2023-04-05T18:18:29.740Z,7.80
2023-04-05T18:21:02.053Z,7.60
2023-04-05T18:23:30.771Z,7.48
2023-04-05T18:26:00.314Z,7.41
2023-04-05T18:28:29.069Z,7.56
2023-04-05T18:30:59.623Z,7.63
2023-04-05T18:33:28.646Z,7.48
2023-04-05T18:35:57.453Z,7.21
2023-04-05T18:38:26.501Z,7.44
2023-04-05T18:41:02.911Z,7.22
2023-04-05T18:43:31.828Z,7.17
2023-04-05T18:46:02.171Z,7.25
2023-04-05T18:48:34.018Z,7.03
2023-04-05T18:51:03.224Z,6.68
2023-04-05T18:53:31.943Z,7.03
2023-04-05T18:56:00.724Z,6.57
2023-04-05T18:58:30.425Z,6.53
2023-04-05T19:01:06.837Z,6.57
2023-04-05T19:03:36.116Z,6.49
2023-04-05T19:06:05.825Z,6.71
2023-04-05T19:08:35.657Z,6.72
2023-04-05T19:11:05.108Z,6.49
2023-04-05T19:13:35.266Z,6.57
2023-04-05T19:16:06.254Z,6.56
2023-04-05T19:18:35.096Z,6.18
2023-04-05T19:21:04.822Z,6.46
2023-04-05T19:23:36.880Z,6.20
2023-04-05T19:26:24.721Z,6.03
2023-04-05T19:28:55.265Z,6.10
2023-04-05T19:31:27.696Z,5.94
2023-04-05T19:33:56.972Z,5.97
2023-04-05T19:36:26.059Z,6.20
2023-04-05T19:38:54.797Z,5.94
2023-04-05T19:41:25.896Z,5.87
2023-04-05T19:43:55.190Z,6.00
2023-04-05T19:46:25.880Z,5.98
2023-04-05T19:48:55.503Z,5.61
2023-04-05T19:51:28.863Z,5.90
2023-04-05T19:54:01.075Z,5.68
2023-04-05T19:56:32.297Z,5.62
2023-04-05T19:59:03.285Z,5.53
2023-04-05T20:01:38.519Z,5.49
2023-04-05T20:04:12.249Z,5.51
2023-04-05T20:06:41.807Z,5.65
2023-04-05T20:09:18.244Z,5.52
2023-04-05T20:11:58.296Z,5.38
2023-04-05T20:14:46.762Z,5.41
2023-04-05T20:17:31.309Z,5.38
2023-04-05T20:20:01.463Z,5.30
2023-04-05T20:22:30.155Z,5.42
2023-04-05T20:24:59.226Z,5.50
2023-04-05T20:27:28.290Z,5.25
2023-04-05T20:29:57.058Z,5.72
2023-04-05T20:32:27.835Z,5.52
2023-04-05T20:34:58.532Z,5.55
2023-04-05T20:37:27.440Z,5.75
2023-04-05T20:39:56.108Z,5.46
2023-04-05T20:42:26.377Z,5.84
2023-04-05T20:44:57.234Z,5.90
2023-04-05T20:47:29.198Z,6.08
2023-04-05T20:50:00.365Z,6.08
2023-04-05T20:52:29.632Z,6.02
2023-04-05T20:55:00.652Z,6.03
2023-04-05T20:57:30.437Z,6.09
2023-04-05T21:00:02.190Z,6.03
2023-04-05T21:02:36.348Z,6.07
2023-04-05T21:05:07.225Z,6.06
2023-04-05T21:07:37.093Z,5.91
2023-04-05T21:10:06.893Z,5.88
2023-04-05T21:12:35.844Z,5.64
2023-04-05T21:15:05.153Z,5.61
2023-04-05T21:17:34.478Z,5.59
2023-04-05T21:20:04.095Z,5.23
2023-04-05T21:22:34.477Z,5.13
2023-04-05T21:25:07.010Z,5.42
2023-04-05T21:27:35.982Z,5.55
2023-04-05T21:30:05.628Z,5.41
2023-04-05T21:32:34.532Z,5.23
2023-04-05T21:35:06.213Z,5.39
2023-04-05T21:37:36.955Z,5.28
2023-04-05T21:40:06.784Z,5.23
2023-04-05T21:42:35.678Z,5.07
2023-04-05T21:45:08.117Z,4.91
2023-04-05T21:47:37.141Z,5.04
2023-04-05T21:50:06.824Z,5.03
2023-04-05T21:52:39.201Z,5.01
2023-04-05T21:55:11.422Z,5.11
2023-04-05T21:57:40.340Z,5.18
2023-04-05T22:00:15.436Z,5.09
2023-04-05T22:02:45.309Z,4.94
2023-04-05T22:05:17.602Z,4.91
2023-04-05T22:07:59.077Z,4.98
2023-04-05T22:10:28.425Z,5.01
2023-04-05T22:12:57.505Z,5.01
2023-04-05T22:15:26.212Z,4.85
2023-04-05T22:17:55.037Z,4.76
2023-04-05T22:20:24.057Z,4.80
2023-04-05T22:22:53.010Z,4.73
2023-04-05T22:25:26.419Z,4.81
2023-04-05T22:27:59.758Z,4.79
2023-04-05T22:30:40.992Z,4.60
2023-04-05T22:33:13.549Z,4.49
2023-04-05T22:35:42.557Z,4.49
2023-04-05T22:38:11.405Z,4.63
2023-04-05T22:40:41.716Z,4.64
2023-04-05T22:43:10.565Z,4.71
2023-04-05T22:45:41.497Z,4.53
2023-04-05T22:48:10.842Z,4.60
2023-04-05T22:50:39.566Z,4.55
2023-04-05T22:53:08.304Z,4.46
2023-04-05T22:55:39.754Z,4.28
2023-04-05T22:58:10.009Z,4.46
2023-04-05T23:00:38.989Z,4.59
2023-04-05T23:03:07.751Z,4.40
2023-04-05T23:05:37.496Z,4.52
2023-04-05T23:08:06.609Z,4.48
2023-04-05T23:10:35.514Z,4.49
2023-04-05T23:13:04.232Z,4.30
2023-04-05T23:15:34.582Z,3.93
2023-04-05T23:18:03.283Z,4.07
2023-04-05T23:20:32.013Z,4.12
2023-04-05T23:23:01.567Z,4.11
2023-04-05T23:25:30.291Z,3.70
2023-04-05T23:27:58.888Z,3.84
2023-04-05T23:30:30.587Z,3.80
2023-04-05T23:33:00.602Z,3.84
2023-04-05T23:35:29.698Z,4.06
2023-04-05T23:37:58.433Z,3.74
2023-04-05T23:40:27.833Z,3.51
2023-04-05T23:42:56.870Z,3.68
2023-04-05T23:45:25.823Z,3.75
2023-04-05T23:47:55.600Z,3.62
2023-04-05T23:50:26.071Z,3.61
2023-04-05T23:52:54.876Z,3.81
2023-04-05T23:55:24.073Z,3.34
2023-04-05T23:57:54.040Z,3.67
